ASA1320 KLAX-MMGL
Flight info
| Callsign | ASA1320 |
|---|---|
| Flight time | N/A |
| Altitude | 37000 |
| Route | PNDAH2 OTAYY DCT TIJ UT4 ANTEL DCT SOUSY DCT AMULA AMULA1B |
| Aircraft | B738/M-SDE2E3FGHIRWXY/LB1 |
Departure
| Time | 2026-04-20 05:04 |
|---|---|
| Airport | Los Angeles International Airport (KLAX) |
Arrival
| Time | N/A |
|---|---|
| Airport | Guadalajara International Airport (MMGL) |
| Time | Latitude | Longitude | Altitude | Speed | Heading |
|---|---|---|---|---|---|
| 2026-04-20 04:14 | 33.94145 | -118.40147 | 92 ft | 0 kts | 275° |
| 2026-04-20 04:50 | 33.94144 | -118.40139 | 92 ft | 4 kts | 277° |
| 2026-04-20 04:51 | 33.94139 | -118.40107 | 93 ft | 4 kts | 281° |
| 2026-04-20 04:51 | 33.94137 | -118.40084 | 92 ft | 4 kts | 214° |
| 2026-04-20 04:51 | 33.94134 | -118.40082 | 92 ft | 0 kts | 173° |
| 2026-04-20 04:54 | 33.94133 | -118.40082 | 92 ft | 1 kts | 173° |
| 2026-04-20 04:54 | 33.94109 | -118.40077 | 93 ft | 6 kts | 172° |
| 2026-04-20 04:54 | 33.94081 | -118.40073 | 92 ft | 3 kts | 173° |
| 2026-04-20 04:54 | 33.94061 | -118.40071 | 92 ft | 3 kts | 174° |
| 2026-04-20 04:55 | 33.94041 | -118.40067 | 94 ft | 3 kts | 173° |
| 2026-04-20 04:55 | 33.94010 | -118.40064 | 92 ft | 7 kts | 174° |
| 2026-04-20 04:55 | 33.93962 | -118.40055 | 93 ft | 7 kts | 172° |
| 2026-04-20 04:55 | 33.93915 | -118.40044 | 95 ft | 7 kts | 156° |
| 2026-04-20 04:56 | 33.93885 | -118.40001 | 96 ft | 7 kts | 109° |
| 2026-04-20 04:56 | 33.93884 | -118.39946 | 98 ft | 7 kts | 85° |
| 2026-04-20 04:56 | 33.93889 | -118.39884 | 95 ft | 9 kts | 83° |
| 2026-04-20 04:56 | 33.93898 | -118.39809 | 96 ft | 9 kts | 81° |
| 2026-04-20 04:57 | 33.93905 | -118.39735 | 94 ft | 9 kts | 83° |
| 2026-04-20 04:57 | 33.93913 | -118.39664 | 94 ft | 8 kts | 82° |
| 2026-04-20 04:57 | 33.93920 | -118.39595 | 94 ft | 8 kts | 83° |
| 2026-04-20 04:57 | 33.93927 | -118.39528 | 94 ft | 8 kts | 83° |
| 2026-04-20 04:58 | 33.93934 | -118.39463 | 93 ft | 8 kts | 83° |
| 2026-04-20 04:58 | 33.93941 | -118.39401 | 95 ft | 7 kts | 83° |
| 2026-04-20 04:58 | 33.93947 | -118.39340 | 92 ft | 7 kts | 84° |
| 2026-04-20 04:58 | 33.93952 | -118.39281 | 92 ft | 7 kts | 83° |
| 2026-04-20 04:59 | 33.93959 | -118.39210 | 92 ft | 10 kts | 83° |
| 2026-04-20 04:59 | 33.93967 | -118.39131 | 95 ft | 9 kts | 83° |
| 2026-04-20 04:59 | 33.93975 | -118.39054 | 93 ft | 9 kts | 82° |
| 2026-04-20 04:59 | 33.93983 | -118.38979 | 96 ft | 9 kts | 81° |
| 2026-04-20 05:00 | 33.93991 | -118.38907 | 93 ft | 9 kts | 83° |
| 2026-04-20 05:00 | 33.93999 | -118.38817 | 95 ft | 13 kts | 82° |
| 2026-04-20 05:00 | 33.94012 | -118.38708 | 96 ft | 13 kts | 82° |
| 2026-04-20 05:00 | 33.94022 | -118.38601 | 94 ft | 13 kts | 84° |
| 2026-04-20 05:01 | 33.94031 | -118.38498 | 95 ft | 12 kts | 83° |
| 2026-04-20 05:01 | 33.94041 | -118.38403 | 98 ft | 10 kts | 83° |
| 2026-04-20 05:01 | 33.94049 | -118.38328 | 95 ft | 9 kts | 82° |
| 2026-04-20 05:01 | 33.94057 | -118.38256 | 94 ft | 9 kts | 82° |
| 2026-04-20 05:02 | 33.94065 | -118.38185 | 93 ft | 9 kts | 79° |
| 2026-04-20 05:02 | 33.94074 | -118.38115 | 92 ft | 8 kts | 82° |
| 2026-04-20 05:02 | 33.94078 | -118.38049 | 92 ft | 8 kts | 95° |
| 2026-04-20 05:02 | 33.94047 | -118.38002 | 92 ft | 8 kts | 159° |
| 2026-04-20 05:03 | 33.93997 | -118.38008 | 92 ft | 7 kts | 218° |
| 2026-04-20 05:03 | 33.93978 | -118.38084 | 93 ft | 19 kts | 261° |
| 2026-04-20 05:03 | 33.93932 | -118.38511 | 98 ft | 85 kts | 262° |
| 2026-04-20 05:03 | 33.93838 | -118.39463 | 98 ft | 142 kts | 263° |
| 2026-04-20 05:04 | 33.93686 | -118.40763 | 391 ft | 167 kts | 261° |
| 2026-04-20 05:04 | 33.93511 | -118.42266 | 704 ft | 197 kts | 261° |
| 2026-04-20 05:04 | 33.93325 | -118.43951 | 1281 ft | 201 kts | 263° |
| 2026-04-20 05:04 | 33.93176 | -118.45605 | 2075 ft | 201 kts | 264° |
| 2026-04-20 05:05 | 33.92760 | -118.47297 | 2261 ft | 227 kts | 232° |
| 2026-04-20 05:05 | 33.91560 | -118.48673 | 2536 ft | 251 kts | 220° |
| 2026-04-20 05:05 | 33.90272 | -118.50156 | 3121 ft | 260 kts | 227° |
| 2026-04-20 05:05 | 33.89099 | -118.51842 | 3824 ft | 265 kts | 228° |
| 2026-04-20 05:06 | 33.87913 | -118.53549 | 4620 ft | 266 kts | 228° |
| 2026-04-20 05:06 | 33.86634 | -118.55169 | 5344 ft | 268 kts | 213° |
| 2026-04-20 05:06 | 33.84925 | -118.55939 | 6073 ft | 265 kts | 184° |
| 2026-04-20 05:06 | 33.83092 | -118.55776 | 6804 ft | 266 kts | 168° |
| 2026-04-20 05:07 | 33.81281 | -118.55280 | 7477 ft | 269 kts | 167° |
| 2026-04-20 05:07 | 33.79456 | -118.54752 | 8181 ft | 271 kts | 167° |
| 2026-04-20 05:07 | 33.77613 | -118.54229 | 8898 ft | 272 kts | 167° |
| 2026-04-20 05:07 | 33.75760 | -118.53718 | 9618 ft | 274 kts | 168° |
| 2026-04-20 05:08 | 33.73891 | -118.53210 | 10253 ft | 279 kts | 168° |
| 2026-04-20 05:08 | 33.72581 | -118.52856 | 10393 ft | 293 kts | 168° |
| 2026-04-20 05:08 | 33.70600 | -118.52086 | 10525 ft | 316 kts | 151° |
| 2026-04-20 05:08 | 33.68927 | -118.50270 | 10701 ft | 338 kts | 127° |
| 2026-04-20 05:09 | 33.67745 | -118.47766 | 11100 ft | 350 kts | 120° |
| 2026-04-20 05:09 | 33.66637 | -118.45144 | 11679 ft | 354 kts | 119° |
| 2026-04-20 05:09 | 33.65534 | -118.42496 | 12335 ft | 356 kts | 119° |
| 2026-04-20 05:09 | 33.64419 | -118.39836 | 12971 ft | 359 kts | 119° |
| 2026-04-20 05:10 | 33.63284 | -118.37154 | 13595 ft | 362 kts | 120° |
| 2026-04-20 05:10 | 33.62129 | -118.34450 | 14203 ft | 365 kts | 120° |
| 2026-04-20 05:10 | 33.60961 | -118.31728 | 14784 ft | 369 kts | 120° |
| 2026-04-20 05:10 | 33.59775 | -118.28975 | 15350 ft | 373 kts | 120° |
| 2026-04-20 05:11 | 33.58558 | -118.26156 | 15932 ft | 378 kts | 120° |
| 2026-04-20 05:11 | 33.57343 | -118.23343 | 16490 ft | 382 kts | 120° |
| 2026-04-20 05:11 | 33.56111 | -118.20493 | 17036 ft | 387 kts | 119° |
| 2026-04-20 05:11 | 33.54867 | -118.17617 | 17584 ft | 391 kts | 119° |
| 2026-04-20 05:12 | 33.53606 | -118.14707 | 18125 ft | 395 kts | 119° |
| 2026-04-20 05:12 | 33.52338 | -118.11766 | 18600 ft | 399 kts | 119° |
| 2026-04-20 05:12 | 33.51061 | -118.08793 | 19072 ft | 403 kts | 119° |
| 2026-04-20 05:12 | 33.49775 | -118.05802 | 19577 ft | 405 kts | 119° |
| 2026-04-20 05:13 | 33.48480 | -118.02794 | 20178 ft | 406 kts | 119° |
| 2026-04-20 05:13 | 33.47157 | -117.99792 | 20628 ft | 410 kts | 123° |
| 2026-04-20 05:13 | 33.45323 | -117.97183 | 20989 ft | 412 kts | 140° |
| 2026-04-20 05:13 | 33.43151 | -117.94947 | 21476 ft | 414 kts | 141° |
| 2026-04-20 05:14 | 33.40952 | -117.92688 | 21896 ft | 418 kts | 140° |
| 2026-04-20 05:14 | 33.38732 | -117.90388 | 22224 ft | 425 kts | 140° |
| 2026-04-20 05:14 | 33.36534 | -117.88088 | 22639 ft | 428 kts | 140° |
| 2026-04-20 05:14 | 33.34286 | -117.85717 | 23086 ft | 431 kts | 140° |
| 2026-04-20 05:15 | 33.32034 | -117.83334 | 23504 ft | 435 kts | 140° |
| 2026-04-20 05:15 | 33.29761 | -117.80925 | 23834 ft | 438 kts | 139° |
| 2026-04-20 05:15 | 33.27474 | -117.78503 | 24172 ft | 442 kts | 139° |
| 2026-04-20 05:15 | 33.25163 | -117.76058 | 24524 ft | 444 kts | 139° |
| 2026-04-20 05:16 | 33.22847 | -117.73608 | 24865 ft | 447 kts | 139° |
| 2026-04-20 05:16 | 33.20504 | -117.71134 | 25189 ft | 450 kts | 139° |
| 2026-04-20 05:16 | 33.18147 | -117.68646 | 25505 ft | 454 kts | 139° |
| 2026-04-20 05:16 | 33.15776 | -117.66144 | 25834 ft | 456 kts | 139° |
| 2026-04-20 05:17 | 33.13428 | -117.63593 | 26151 ft | 459 kts | 138° |
| 2026-04-20 05:17 | 33.11080 | -117.60978 | 26460 ft | 462 kts | 137° |
| 2026-04-20 05:17 | 33.08733 | -117.58343 | 26759 ft | 465 kts | 137° |
| 2026-04-20 05:17 | 33.06371 | -117.55689 | 27052 ft | 468 kts | 137° |
| 2026-04-20 05:18 | 33.03989 | -117.53022 | 27345 ft | 471 kts | 137° |
| 2026-04-20 05:18 | 33.01595 | -117.50352 | 27612 ft | 474 kts | 137° |
| 2026-04-20 05:18 | 32.99175 | -117.47662 | 27867 ft | 477 kts | 137° |
| 2026-04-20 05:18 | 32.96743 | -117.44964 | 28169 ft | 479 kts | 137° |
| 2026-04-20 05:19 | 32.94302 | -117.42260 | 28460 ft | 481 kts | 137° |
| 2026-04-20 05:19 | 32.91843 | -117.39538 | 28739 ft | 483 kts | 137° |
| 2026-04-20 05:19 | 32.89381 | -117.36816 | 29004 ft | 486 kts | 137° |
| 2026-04-20 05:19 | 32.86893 | -117.34066 | 29240 ft | 489 kts | 137° |
| 2026-04-20 05:20 | 32.84401 | -117.31313 | 29507 ft | 491 kts | 137° |
| 2026-04-20 05:20 | 32.81882 | -117.28534 | 29759 ft | 494 kts | 137° |
| 2026-04-20 05:20 | 32.79360 | -117.25752 | 30002 ft | 496 kts | 137° |
| 2026-04-20 05:20 | 32.76831 | -117.22964 | 30292 ft | 496 kts | 137° |
| 2026-04-20 05:21 | 32.74308 | -117.20186 | 30629 ft | 494 kts | 137° |
| 2026-04-20 05:21 | 32.71786 | -117.17411 | 30974 ft | 493 kts | 137° |
| 2026-04-20 05:21 | 32.69274 | -117.14648 | 31271 ft | 493 kts | 137° |
| 2026-04-20 05:21 | 32.66763 | -117.11890 | 31545 ft | 493 kts | 137° |
| 2026-04-20 05:22 | 32.64338 | -117.09011 | 31810 ft | 493 kts | 133° |
| 2026-04-20 05:22 | 32.62039 | -117.05990 | 32070 ft | 493 kts | 131° |
| 2026-04-20 05:22 | 32.59781 | -117.02927 | 32368 ft | 493 kts | 131° |
| 2026-04-20 05:22 | 32.57515 | -116.99883 | 32678 ft | 492 kts | 132° |
| 2026-04-20 05:23 | 32.55224 | -116.96874 | 32996 ft | 491 kts | 133° |
| 2026-04-20 05:23 | 32.52919 | -116.93888 | 33259 ft | 491 kts | 133° |
| 2026-04-20 05:23 | 32.50596 | -116.90919 | 33532 ft | 491 kts | 134° |
| 2026-04-20 05:23 | 32.48303 | -116.88008 | 33818 ft | 490 kts | 134° |
| 2026-04-20 05:24 | 32.45982 | -116.85065 | 34099 ft | 489 kts | 134° |
| 2026-04-20 05:24 | 32.43657 | -116.82115 | 34353 ft | 488 kts | 134° |
| 2026-04-20 05:24 | 32.41342 | -116.79176 | 34578 ft | 488 kts | 134° |
| 2026-04-20 05:24 | 32.39031 | -116.76240 | 34791 ft | 488 kts | 134° |
| 2026-04-20 05:25 | 32.36716 | -116.73299 | 35023 ft | 487 kts | 134° |
| 2026-04-20 05:25 | 32.34410 | -116.70371 | 35252 ft | 486 kts | 135° |
| 2026-04-20 05:25 | 32.32107 | -116.67449 | 35480 ft | 485 kts | 135° |
| 2026-04-20 05:25 | 32.29805 | -116.64531 | 35684 ft | 485 kts | 135° |
| 2026-04-20 05:26 | 32.27505 | -116.61619 | 35885 ft | 485 kts | 135° |
| 2026-04-20 05:26 | 32.25207 | -116.58711 | 36097 ft | 484 kts | 135° |
| 2026-04-20 05:26 | 32.22909 | -116.55803 | 36320 ft | 483 kts | 136° |
| 2026-04-20 05:26 | 32.20622 | -116.52913 | 36586 ft | 480 kts | 136° |
| 2026-04-20 05:27 | 32.18342 | -116.50035 | 36831 ft | 479 kts | 136° |
| 2026-04-20 05:27 | 32.16069 | -116.47168 | 36991 ft | 479 kts | 136° |
| 2026-04-20 05:27 | 32.13785 | -116.44287 | 37045 ft | 481 kts | 136° |
| 2026-04-20 05:28 | 32.09197 | -116.38507 | 37043 ft | 482 kts | 136° |
| 2026-04-20 05:28 | 32.04626 | -116.32752 | 37048 ft | 480 kts | 136° |
| 2026-04-20 05:29 | 32.00068 | -116.27023 | 37040 ft | 478 kts | 136° |
| 2026-04-20 05:29 | 31.95530 | -116.21328 | 37045 ft | 476 kts | 136° |
| 2026-04-20 05:30 | 31.90997 | -116.15649 | 37041 ft | 475 kts | 136° |
| 2026-04-20 05:30 | 31.86474 | -116.09991 | 37040 ft | 474 kts | 137° |
| 2026-04-20 05:31 | 31.81953 | -116.04345 | 37042 ft | 474 kts | 137° |
| 2026-04-20 05:31 | 31.77433 | -115.98705 | 37035 ft | 474 kts | 137° |
| 2026-04-20 05:32 | 31.72900 | -115.93063 | 37036 ft | 475 kts | 137° |
| 2026-04-20 05:32 | 31.68346 | -115.87423 | 37004 ft | 476 kts | 137° |
| 2026-04-20 05:33 | 31.63782 | -115.81782 | 37029 ft | 477 kts | 137° |
| 2026-04-20 05:33 | 31.59207 | -115.76132 | 37005 ft | 478 kts | 137° |
| 2026-04-20 05:34 | 31.54618 | -115.70471 | 37017 ft | 479 kts | 137° |
| 2026-04-20 05:34 | 31.47724 | -115.61980 | 37005 ft | 479 kts | 137° |
| 2026-04-20 05:35 | 31.43123 | -115.56326 | 36998 ft | 479 kts | 137° |
| 2026-04-20 05:35 | 31.38526 | -115.50685 | 36980 ft | 479 kts | 137° |
| 2026-04-20 05:36 | 31.33933 | -115.45057 | 36990 ft | 478 kts | 138° |
| 2026-04-20 05:36 | 31.29334 | -115.39431 | 36973 ft | 477 kts | 138° |
| 2026-04-20 05:37 | 31.24748 | -115.33827 | 36953 ft | 476 kts | 138° |
| 2026-04-20 05:37 | 31.20169 | -115.28241 | 36963 ft | 475 kts | 138° |
| 2026-04-20 05:38 | 31.15595 | -115.22671 | 36931 ft | 475 kts | 138° |
| 2026-04-20 05:38 | 31.11021 | -115.17109 | 36923 ft | 475 kts | 138° |
| 2026-04-20 05:39 | 31.06446 | -115.11553 | 36913 ft | 474 kts | 138° |
| 2026-04-20 05:39 | 31.01882 | -115.06017 | 36914 ft | 473 kts | 138° |
| 2026-04-20 05:40 | 30.97344 | -115.00520 | 36896 ft | 473 kts | 139° |
| 2026-04-20 05:40 | 30.92746 | -114.94961 | 36903 ft | 474 kts | 139° |
| 2026-04-20 05:41 | 30.88172 | -114.89439 | 36913 ft | 474 kts | 139° |
| 2026-04-20 05:41 | 30.83592 | -114.83918 | 36908 ft | 474 kts | 139° |
| 2026-04-20 05:42 | 30.79015 | -114.78406 | 36914 ft | 474 kts | 139° |
| 2026-04-20 05:42 | 30.74436 | -114.72897 | 36899 ft | 474 kts | 139° |
| 2026-04-20 05:43 | 30.69885 | -114.67429 | 36908 ft | 474 kts | 139° |
| 2026-04-20 05:43 | 30.65302 | -114.61931 | 36902 ft | 474 kts | 139° |
| 2026-04-20 05:44 | 30.60714 | -114.56436 | 36909 ft | 474 kts | 139° |
| 2026-04-20 05:44 | 30.56116 | -114.50936 | 36902 ft | 474 kts | 139° |
| 2026-04-20 05:45 | 30.51517 | -114.45443 | 36905 ft | 475 kts | 139° |
| 2026-04-20 05:45 | 30.46911 | -114.39949 | 36892 ft | 475 kts | 139° |
| 2026-04-20 05:46 | 30.42306 | -114.34465 | 36906 ft | 475 kts | 139° |
| 2026-04-20 05:46 | 30.37695 | -114.28982 | 36911 ft | 475 kts | 139° |
| 2026-04-20 05:47 | 30.33076 | -114.23497 | 36916 ft | 476 kts | 139° |
| 2026-04-20 05:47 | 30.28457 | -114.18019 | 36915 ft | 476 kts | 139° |
| 2026-04-20 05:48 | 30.23829 | -114.12539 | 36917 ft | 476 kts | 139° |
| 2026-04-20 05:48 | 30.19207 | -114.07073 | 36926 ft | 476 kts | 139° |
| 2026-04-20 05:49 | 30.14572 | -114.01601 | 36925 ft | 476 kts | 140° |
| 2026-04-20 05:49 | 30.09940 | -113.96139 | 36926 ft | 476 kts | 140° |
| 2026-04-20 05:50 | 30.05301 | -113.90678 | 36908 ft | 476 kts | 140° |
| 2026-04-20 05:50 | 30.00669 | -113.85231 | 36924 ft | 476 kts | 140° |
| 2026-04-20 05:51 | 29.96023 | -113.79776 | 36928 ft | 476 kts | 140° |
| 2026-04-20 05:51 | 29.92161 | -113.75248 | 36931 ft | 476 kts | 140° |
| 2026-04-20 05:52 | 29.87520 | -113.69812 | 36932 ft | 476 kts | 140° |
| 2026-04-20 05:52 | 29.82870 | -113.64371 | 36923 ft | 476 kts | 140° |
| 2026-04-20 05:53 | 29.78241 | -113.58915 | 36932 ft | 477 kts | 138° |
| 2026-04-20 05:53 | 29.73795 | -113.53211 | 36937 ft | 479 kts | 136° |
| 2026-04-20 05:54 | 29.69406 | -113.47438 | 36933 ft | 479 kts | 136° |
| 2026-04-20 05:54 | 29.64995 | -113.41692 | 36937 ft | 479 kts | 137° |
| 2026-04-20 05:55 | 29.60557 | -113.35967 | 36931 ft | 479 kts | 137° |
| 2026-04-20 05:55 | 29.56120 | -113.30271 | 36937 ft | 479 kts | 137° |
| 2026-04-20 05:56 | 29.51673 | -113.24573 | 36941 ft | 479 kts | 137° |
| 2026-04-20 05:56 | 29.47220 | -113.18872 | 36935 ft | 480 kts | 137° |
| 2026-04-20 05:57 | 29.42759 | -113.13168 | 36943 ft | 480 kts | 137° |
| 2026-04-20 05:57 | 29.38301 | -113.07473 | 36931 ft | 480 kts | 137° |
| 2026-04-20 05:58 | 29.33838 | -113.01782 | 36938 ft | 480 kts | 137° |
| 2026-04-20 05:58 | 29.29401 | -112.96133 | 36937 ft | 480 kts | 137° |
| 2026-04-20 05:59 | 29.24930 | -112.90448 | 36945 ft | 480 kts | 137° |
| 2026-04-20 05:59 | 29.20451 | -112.84761 | 36927 ft | 481 kts | 138° |
| 2026-04-20 06:00 | 29.15971 | -112.79081 | 36946 ft | 481 kts | 138° |
| 2026-04-20 06:00 | 29.11459 | -112.73366 | 36950 ft | 481 kts | 138° |
| 2026-04-20 06:01 | 29.07004 | -112.67734 | 36952 ft | 481 kts | 138° |
| 2026-04-20 06:01 | 29.02514 | -112.62065 | 36951 ft | 481 kts | 138° |
| 2026-04-20 06:02 | 28.98017 | -112.56394 | 36932 ft | 482 kts | 138° |
| 2026-04-20 06:02 | 28.93520 | -112.50732 | 36948 ft | 481 kts | 138° |
| 2026-04-20 06:03 | 28.89017 | -112.45070 | 36957 ft | 482 kts | 138° |
| 2026-04-20 06:03 | 28.84504 | -112.39403 | 36962 ft | 482 kts | 138° |
| 2026-04-20 06:04 | 28.79988 | -112.33740 | 36953 ft | 483 kts | 138° |
| 2026-04-20 06:04 | 28.75470 | -112.28083 | 36954 ft | 483 kts | 138° |
| 2026-04-20 06:05 | 28.70949 | -112.22430 | 36955 ft | 483 kts | 138° |
| 2026-04-20 06:05 | 28.66417 | -112.16771 | 36955 ft | 483 kts | 138° |
| 2026-04-20 06:06 | 28.61889 | -112.11124 | 36957 ft | 483 kts | 138° |
| 2026-04-20 06:06 | 28.57367 | -112.05493 | 36961 ft | 482 kts | 139° |
| 2026-04-20 06:07 | 28.52839 | -111.99863 | 36939 ft | 482 kts | 139° |
| 2026-04-20 06:07 | 28.48319 | -111.94249 | 36953 ft | 482 kts | 139° |
| 2026-04-20 06:08 | 28.43785 | -111.88627 | 36959 ft | 481 kts | 139° |
| 2026-04-20 06:08 | 28.39262 | -111.83026 | 36960 ft | 481 kts | 139° |
| 2026-04-20 06:09 | 28.34729 | -111.77419 | 36956 ft | 482 kts | 139° |
| 2026-04-20 06:09 | 28.30195 | -111.71820 | 36942 ft | 482 kts | 139° |
| 2026-04-20 06:10 | 28.25662 | -111.66229 | 36960 ft | 482 kts | 139° |
| 2026-04-20 06:10 | 28.21121 | -111.60636 | 36959 ft | 482 kts | 139° |
| 2026-04-20 06:11 | 28.16604 | -111.55080 | 36976 ft | 483 kts | 139° |
| 2026-04-20 06:11 | 28.12056 | -111.49493 | 36975 ft | 483 kts | 139° |
| 2026-04-20 06:12 | 28.07497 | -111.43901 | 36943 ft | 483 kts | 139° |
| 2026-04-20 06:12 | 28.02928 | -111.38303 | 36968 ft | 484 kts | 139° |
| 2026-04-20 06:13 | 27.98361 | -111.32715 | 36968 ft | 484 kts | 139° |
| 2026-04-20 06:13 | 27.93783 | -111.27122 | 36973 ft | 484 kts | 139° |
| 2026-04-20 06:14 | 27.89205 | -111.21536 | 36969 ft | 485 kts | 139° |
| 2026-04-20 06:14 | 27.84620 | -111.15949 | 36948 ft | 485 kts | 139° |
| 2026-04-20 06:15 | 27.80031 | -111.10362 | 36960 ft | 484 kts | 139° |
| 2026-04-20 06:15 | 27.75447 | -111.04792 | 36974 ft | 484 kts | 139° |
| 2026-04-20 06:16 | 27.70855 | -110.99219 | 36969 ft | 485 kts | 139° |
| 2026-04-20 06:16 | 27.66261 | -110.93651 | 36971 ft | 485 kts | 139° |
| 2026-04-20 06:17 | 27.61666 | -110.88089 | 36941 ft | 485 kts | 140° |
| 2026-04-20 06:17 | 27.57060 | -110.82520 | 36965 ft | 485 kts | 140° |
| 2026-04-20 06:18 | 27.52462 | -110.76969 | 36966 ft | 485 kts | 140° |
| 2026-04-20 06:18 | 27.47849 | -110.71407 | 36972 ft | 485 kts | 140° |
| 2026-04-20 06:19 | 27.43239 | -110.65857 | 36970 ft | 486 kts | 140° |
| 2026-04-20 06:19 | 27.38623 | -110.60306 | 36970 ft | 486 kts | 140° |
| 2026-04-20 06:20 | 27.33999 | -110.54752 | 36970 ft | 486 kts | 140° |
| 2026-04-20 06:20 | 27.29382 | -110.49215 | 36972 ft | 486 kts | 140° |
| 2026-04-20 06:21 | 27.24746 | -110.43662 | 36970 ft | 487 kts | 140° |
| 2026-04-20 06:21 | 27.20111 | -110.38118 | 36970 ft | 487 kts | 140° |
| 2026-04-20 06:22 | 27.15467 | -110.32569 | 36972 ft | 487 kts | 140° |
| 2026-04-20 06:22 | 27.10826 | -110.27031 | 36966 ft | 487 kts | 140° |
| 2026-04-20 06:23 | 27.06190 | -110.21507 | 36969 ft | 487 kts | 140° |
| 2026-04-20 06:23 | 27.01537 | -110.15969 | 36968 ft | 487 kts | 140° |
| 2026-04-20 06:24 | 26.96884 | -110.10440 | 36965 ft | 488 kts | 140° |
| 2026-04-20 06:24 | 26.92222 | -110.04906 | 36979 ft | 488 kts | 140° |
| 2026-04-20 06:25 | 26.87566 | -109.99386 | 36973 ft | 488 kts | 140° |
| 2026-04-20 06:25 | 26.82900 | -109.93861 | 36965 ft | 488 kts | 140° |
| 2026-04-20 06:26 | 26.78227 | -109.88336 | 36975 ft | 488 kts | 140° |
| 2026-04-20 06:26 | 26.73553 | -109.82817 | 36974 ft | 489 kts | 140° |
| 2026-04-20 06:27 | 26.68874 | -109.77299 | 36978 ft | 489 kts | 140° |
| 2026-04-20 06:27 | 26.64194 | -109.71785 | 36945 ft | 489 kts | 140° |
| 2026-04-20 06:28 | 26.59517 | -109.66283 | 36969 ft | 488 kts | 140° |
| 2026-04-20 06:28 | 26.54839 | -109.60787 | 36978 ft | 488 kts | 140° |
| 2026-04-20 06:29 | 26.50149 | -109.55284 | 36976 ft | 489 kts | 140° |
| 2026-04-20 06:29 | 26.45463 | -109.49793 | 36976 ft | 489 kts | 140° |
| 2026-04-20 06:30 | 26.40800 | -109.44335 | 36977 ft | 489 kts | 140° |
| 2026-04-20 06:30 | 26.36111 | -109.38853 | 36982 ft | 489 kts | 140° |
| 2026-04-20 06:31 | 26.31404 | -109.33358 | 36979 ft | 489 kts | 140° |
| 2026-04-20 06:31 | 26.26704 | -109.27877 | 36979 ft | 489 kts | 140° |
| 2026-04-20 06:32 | 26.22003 | -109.22403 | 36980 ft | 489 kts | 140° |
| 2026-04-20 06:32 | 26.17299 | -109.16931 | 36974 ft | 489 kts | 140° |
| 2026-04-20 06:33 | 26.12564 | -109.11430 | 36978 ft | 489 kts | 140° |
| 2026-04-20 06:33 | 26.07852 | -109.05969 | 36978 ft | 488 kts | 141° |
| 2026-04-20 06:34 | 26.03150 | -109.00589 | 36976 ft | 488 kts | 140° |
| 2026-04-20 06:35 | 25.96123 | -108.92402 | 36981 ft | 488 kts | 140° |
| 2026-04-20 06:35 | 25.91420 | -108.86951 | 36982 ft | 488 kts | 140° |
| 2026-04-20 06:36 | 25.86714 | -108.81518 | 36985 ft | 488 kts | 140° |
| 2026-04-20 06:36 | 25.82761 | -108.76964 | 36976 ft | 489 kts | 140° |
| 2026-04-20 06:37 | 25.78044 | -108.71536 | 36990 ft | 489 kts | 140° |
| 2026-04-20 06:37 | 25.73342 | -108.66129 | 36989 ft | 490 kts | 140° |
| 2026-04-20 06:38 | 25.68576 | -108.60656 | 36977 ft | 490 kts | 140° |
| 2026-04-20 06:38 | 25.63837 | -108.55220 | 36972 ft | 491 kts | 140° |
| 2026-04-20 06:39 | 25.59123 | -108.49820 | 36987 ft | 491 kts | 140° |
| 2026-04-20 06:39 | 25.54376 | -108.44387 | 36983 ft | 491 kts | 140° |
| 2026-04-20 06:40 | 25.49625 | -108.38958 | 36985 ft | 491 kts | 140° |
| 2026-04-20 06:40 | 25.44867 | -108.33527 | 36985 ft | 491 kts | 140° |
| 2026-04-20 06:41 | 25.40108 | -108.28101 | 36987 ft | 491 kts | 140° |
| 2026-04-20 06:41 | 25.35351 | -108.22683 | 36981 ft | 491 kts | 140° |
| 2026-04-20 06:42 | 25.30594 | -108.17274 | 36986 ft | 491 kts | 140° |
| 2026-04-20 06:42 | 25.25833 | -108.11865 | 36986 ft | 491 kts | 140° |
| 2026-04-20 06:43 | 25.21075 | -108.06467 | 36981 ft | 491 kts | 140° |
| 2026-04-20 06:43 | 25.16292 | -108.01106 | 37000 ft | 490 kts | 140° |
| 2026-04-20 06:44 | 25.11532 | -107.95704 | 36975 ft | 490 kts | 140° |
| 2026-04-20 06:44 | 25.06788 | -107.90307 | 36980 ft | 490 kts | 140° |
| 2026-04-20 06:45 | 25.02034 | -107.84925 | 37000 ft | 490 kts | 140° |
| 2026-04-20 06:45 | 24.97264 | -107.79546 | 36989 ft | 491 kts | 140° |
| 2026-04-20 06:46 | 24.92488 | -107.74166 | 36982 ft | 491 kts | 140° |
| 2026-04-20 06:46 | 24.87713 | -107.68793 | 36989 ft | 490 kts | 140° |
| 2026-04-20 06:47 | 24.82948 | -107.63437 | 36982 ft | 489 kts | 140° |
| 2026-04-20 06:47 | 24.78188 | -107.58093 | 36984 ft | 488 kts | 140° |
| 2026-04-20 06:48 | 24.73435 | -107.52764 | 36989 ft | 488 kts | 140° |
| 2026-04-20 06:48 | 24.68680 | -107.47439 | 36985 ft | 488 kts | 140° |
| 2026-04-20 06:49 | 24.63929 | -107.42123 | 36992 ft | 487 kts | 140° |
| 2026-04-20 06:49 | 24.59175 | -107.36812 | 36975 ft | 487 kts | 140° |
| 2026-04-20 06:50 | 24.54428 | -107.31513 | 36988 ft | 486 kts | 140° |
| 2026-04-20 06:50 | 24.49685 | -107.26225 | 36986 ft | 486 kts | 140° |
| 2026-04-20 06:51 | 24.44934 | -107.20935 | 36994 ft | 486 kts | 140° |
| 2026-04-20 06:51 | 24.40185 | -107.15653 | 36997 ft | 486 kts | 140° |
| 2026-04-20 06:52 | 24.35471 | -107.10415 | 36999 ft | 486 kts | 140° |
| 2026-04-20 06:52 | 24.30717 | -107.05139 | 36992 ft | 486 kts | 140° |
| 2026-04-20 06:53 | 24.25964 | -106.99871 | 36997 ft | 486 kts | 140° |
| 2026-04-20 06:53 | 24.21215 | -106.94611 | 36995 ft | 485 kts | 140° |
| 2026-04-20 06:54 | 24.16465 | -106.89363 | 36990 ft | 484 kts | 140° |
| 2026-04-20 06:54 | 24.11726 | -106.84129 | 36994 ft | 484 kts | 140° |
| 2026-04-20 06:55 | 24.06991 | -106.78899 | 36994 ft | 484 kts | 140° |
| 2026-04-20 06:55 | 24.02250 | -106.73671 | 36988 ft | 483 kts | 140° |
| 2026-04-20 06:56 | 23.97526 | -106.68468 | 37002 ft | 482 kts | 140° |
| 2026-04-20 06:56 | 23.92797 | -106.63271 | 36997 ft | 481 kts | 140° |
| 2026-04-20 06:57 | 23.88082 | -106.58088 | 36999 ft | 480 kts | 140° |
| 2026-04-20 06:57 | 23.83388 | -106.52929 | 37008 ft | 479 kts | 140° |
| 2026-04-20 06:58 | 23.78691 | -106.47781 | 37023 ft | 478 kts | 140° |
| 2026-04-20 06:58 | 23.73999 | -106.42645 | 37005 ft | 478 kts | 140° |
| 2026-04-20 06:59 | 23.69296 | -106.37504 | 37013 ft | 478 kts | 140° |
| 2026-04-20 06:59 | 23.64599 | -106.32372 | 37029 ft | 478 kts | 140° |
| 2026-04-20 07:00 | 23.59900 | -106.27243 | 37002 ft | 478 kts | 141° |
| 2026-04-20 07:00 | 23.55194 | -106.22117 | 37011 ft | 478 kts | 141° |
| 2026-04-20 07:01 | 23.50498 | -106.16997 | 37011 ft | 477 kts | 141° |
| 2026-04-20 07:01 | 23.45812 | -106.11895 | 37011 ft | 476 kts | 141° |
| 2026-04-20 07:02 | 23.41120 | -106.06796 | 36999 ft | 476 kts | 141° |
| 2026-04-20 07:02 | 23.36444 | -106.01719 | 37024 ft | 475 kts | 141° |
| 2026-04-20 07:03 | 23.31760 | -105.96636 | 37014 ft | 474 kts | 141° |
| 2026-04-20 07:03 | 23.27100 | -105.91588 | 37016 ft | 473 kts | 141° |
| 2026-04-20 07:04 | 23.22439 | -105.86544 | 37011 ft | 472 kts | 141° |
| 2026-04-20 07:04 | 23.17800 | -105.81528 | 37010 ft | 470 kts | 141° |
| 2026-04-20 07:05 | 23.13163 | -105.76520 | 37031 ft | 469 kts | 142° |
| 2026-04-20 07:05 | 23.08535 | -105.71527 | 37023 ft | 468 kts | 142° |
| 2026-04-20 07:06 | 23.03909 | -105.66539 | 37021 ft | 468 kts | 142° |
| 2026-04-20 07:06 | 22.99284 | -105.61561 | 37036 ft | 469 kts | 142° |
| 2026-04-20 07:07 | 22.94649 | -105.56576 | 37006 ft | 469 kts | 142° |
| 2026-04-20 07:07 | 22.90021 | -105.51593 | 37025 ft | 470 kts | 142° |
| 2026-04-20 07:08 | 22.85374 | -105.46606 | 37017 ft | 471 kts | 142° |
| 2026-04-20 07:08 | 22.80713 | -105.41614 | 37015 ft | 470 kts | 142° |
| 2026-04-20 07:09 | 22.76066 | -105.36627 | 37019 ft | 470 kts | 142° |
| 2026-04-20 07:09 | 22.71405 | -105.31645 | 37028 ft | 470 kts | 142° |
| 2026-04-20 07:10 | 22.66748 | -105.26670 | 37014 ft | 471 kts | 142° |
| 2026-04-20 07:10 | 22.62088 | -105.21692 | 37016 ft | 471 kts | 142° |
| 2026-04-20 07:11 | 22.57418 | -105.16708 | 37035 ft | 472 kts | 142° |
| 2026-04-20 07:11 | 22.52717 | -105.11752 | 37049 ft | 473 kts | 142° |
| 2026-04-20 07:12 | 22.48077 | -105.06704 | 37052 ft | 472 kts | 143° |
| 2026-04-20 07:12 | 22.43454 | -105.01632 | 37030 ft | 479 kts | 135° |
| 2026-04-20 07:13 | 22.39735 | -104.95583 | 36999 ft | 485 kts | 128° |
| 2026-04-20 07:13 | 22.36202 | -104.89392 | 37061 ft | 484 kts | 128° |
| 2026-04-20 07:14 | 22.32640 | -104.83223 | 37050 ft | 483 kts | 129° |
| 2026-04-20 07:14 | 22.29049 | -104.77105 | 37031 ft | 481 kts | 129° |
| 2026-04-20 07:15 | 22.25467 | -104.71020 | 37056 ft | 479 kts | 129° |
| 2026-04-20 07:15 | 22.21883 | -104.64975 | 37033 ft | 477 kts | 129° |
| 2026-04-20 07:16 | 22.18320 | -104.58949 | 37064 ft | 477 kts | 129° |
| 2026-04-20 07:16 | 22.14752 | -104.52917 | 37058 ft | 477 kts | 129° |
| 2026-04-20 07:17 | 22.11168 | -104.46875 | 37055 ft | 479 kts | 129° |
| 2026-04-20 07:17 | 22.07573 | -104.40815 | 37048 ft | 480 kts | 129° |
| 2026-04-20 07:18 | 22.03965 | -104.34738 | 37056 ft | 482 kts | 129° |
| 2026-04-20 07:18 | 22.00342 | -104.28641 | 37050 ft | 484 kts | 129° |
| 2026-04-20 07:19 | 21.97323 | -104.23568 | 37056 ft | 484 kts | 129° |
| 2026-04-20 07:19 | 21.93677 | -104.17445 | 36652 ft | 491 kts | 129° |
| 2026-04-20 07:19 | 21.91837 | -104.14362 | 36134 ft | 489 kts | 129° |
| 2026-04-20 07:20 | 21.89999 | -104.11277 | 35526 ft | 489 kts | 129° |
| 2026-04-20 07:20 | 21.88158 | -104.08191 | 34867 ft | 490 kts | 129° |
| 2026-04-20 07:20 | 21.86307 | -104.05094 | 34164 ft | 493 kts | 129° |
| 2026-04-20 07:20 | 21.84451 | -104.01991 | 33369 ft | 494 kts | 129° |
| 2026-04-20 07:21 | 21.82591 | -103.98878 | 32719 ft | 493 kts | 129° |
| 2026-04-20 07:21 | 21.80748 | -103.95791 | 32243 ft | 487 kts | 128° |
| 2026-04-20 07:21 | 21.78927 | -103.92743 | 31750 ft | 483 kts | 128° |
| 2026-04-20 07:21 | 21.77117 | -103.89718 | 31256 ft | 479 kts | 128° |
| 2026-04-20 07:22 | 21.75319 | -103.86715 | 30752 ft | 475 kts | 128° |
| 2026-04-20 07:22 | 21.73541 | -103.83741 | 30261 ft | 471 kts | 129° |
| 2026-04-20 07:22 | 21.71771 | -103.80803 | 29735 ft | 467 kts | 128° |
| 2026-04-20 07:22 | 21.70018 | -103.77885 | 29201 ft | 462 kts | 128° |
| 2026-04-20 07:23 | 21.68281 | -103.74989 | 28685 ft | 458 kts | 128° |
| 2026-04-20 07:23 | 21.66563 | -103.72127 | 28181 ft | 453 kts | 128° |
| 2026-04-20 07:23 | 21.64737 | -103.69412 | 27679 ft | 442 kts | 140° |
| 2026-04-20 07:23 | 21.62381 | -103.67406 | 27214 ft | 427 kts | 155° |
| 2026-04-20 07:24 | 21.59697 | -103.66162 | 26735 ft | 415 kts | 167° |
| 2026-04-20 07:24 | 21.56949 | -103.65266 | 26269 ft | 411 kts | 168° |
| 2026-04-20 07:24 | 21.54211 | -103.64411 | 25789 ft | 408 kts | 168° |
| 2026-04-20 07:24 | 21.51496 | -103.63556 | 25325 ft | 406 kts | 168° |
| 2026-04-20 07:25 | 21.48799 | -103.62690 | 24848 ft | 404 kts | 167° |
| 2026-04-20 07:25 | 21.46112 | -103.61813 | 24375 ft | 403 kts | 167° |
| 2026-04-20 07:25 | 21.43434 | -103.60930 | 23912 ft | 403 kts | 166° |
| 2026-04-20 07:25 | 21.40754 | -103.60043 | 23389 ft | 402 kts | 166° |
| 2026-04-20 07:26 | 21.38087 | -103.59161 | 22890 ft | 400 kts | 166° |
| 2026-04-20 07:26 | 21.35446 | -103.58286 | 22394 ft | 397 kts | 165° |
| 2026-04-20 07:26 | 21.32951 | -103.57002 | 21914 ft | 402 kts | 146° |
| 2026-04-20 07:26 | 21.30975 | -103.54888 | 21489 ft | 404 kts | 127° |
| 2026-04-20 07:27 | 21.29528 | -103.52321 | 21077 ft | 402 kts | 122° |
| 2026-04-20 07:27 | 21.28164 | -103.49705 | 20622 ft | 400 kts | 121° |
| 2026-04-20 07:27 | 21.26821 | -103.47102 | 20177 ft | 398 kts | 121° |
| 2026-04-20 07:27 | 21.25478 | -103.44520 | 19715 ft | 396 kts | 121° |
| 2026-04-20 07:28 | 21.24125 | -103.41947 | 19258 ft | 394 kts | 122° |
| 2026-04-20 07:28 | 21.22775 | -103.39403 | 18806 ft | 392 kts | 122° |
| 2026-04-20 07:28 | 21.21424 | -103.36870 | 18362 ft | 391 kts | 122° |
| 2026-04-20 07:28 | 21.20073 | -103.34345 | 17873 ft | 389 kts | 122° |
| 2026-04-20 07:29 | 21.18734 | -103.31843 | 17412 ft | 386 kts | 122° |
| 2026-04-20 07:29 | 21.17405 | -103.29361 | 16962 ft | 383 kts | 122° |
| 2026-04-20 07:29 | 21.16083 | -103.26894 | 16524 ft | 380 kts | 122° |
| 2026-04-20 07:29 | 21.14776 | -103.24455 | 16086 ft | 376 kts | 122° |
| 2026-04-20 07:30 | 21.13491 | -103.22047 | 15899 ft | 366 kts | 122° |
| 2026-04-20 07:30 | 21.12245 | -103.19707 | 15722 ft | 358 kts | 122° |
| 2026-04-20 07:30 | 21.11022 | -103.17408 | 15565 ft | 352 kts | 122° |
| 2026-04-20 07:30 | 21.09642 | -103.15258 | 15399 ft | 351 kts | 135° |
| 2026-04-20 07:31 | 21.07909 | -103.13400 | 15274 ft | 355 kts | 138° |
| 2026-04-20 07:31 | 21.06112 | -103.11574 | 15117 ft | 357 kts | 138° |
| 2026-04-20 07:31 | 21.04314 | -103.09751 | 14946 ft | 354 kts | 138° |
| 2026-04-20 07:31 | 21.02536 | -103.07929 | 14778 ft | 352 kts | 138° |
| 2026-04-20 07:32 | 21.00781 | -103.06112 | 14621 ft | 350 kts | 137° |
| 2026-04-20 07:32 | 20.99037 | -103.04295 | 14470 ft | 349 kts | 137° |
| 2026-04-20 07:32 | 20.97306 | -103.02485 | 14320 ft | 348 kts | 137° |
| 2026-04-20 07:32 | 20.95579 | -103.00677 | 14167 ft | 347 kts | 137° |
| 2026-04-20 07:33 | 20.93853 | -102.98868 | 14007 ft | 347 kts | 137° |
| 2026-04-20 07:33 | 20.92129 | -102.97062 | 13857 ft | 346 kts | 137° |
| 2026-04-20 07:33 | 20.90411 | -102.95263 | 13690 ft | 345 kts | 137° |
| 2026-04-20 07:33 | 20.88698 | -102.93467 | 13553 ft | 345 kts | 137° |
| 2026-04-20 07:34 | 20.86979 | -102.91670 | 13338 ft | 345 kts | 137° |
| 2026-04-20 07:34 | 20.85262 | -102.89878 | 13205 ft | 344 kts | 137° |
| 2026-04-20 07:34 | 20.83558 | -102.88099 | 13063 ft | 342 kts | 137° |
| 2026-04-20 07:35 | 20.80228 | -102.84618 | 12987 ft | 329 kts | 137° |
| 2026-04-20 07:35 | 20.78594 | -102.82912 | 12974 ft | 320 kts | 137° |
| 2026-04-20 07:35 | 20.77024 | -102.81274 | 12977 ft | 311 kts | 137° |
| 2026-04-20 07:35 | 20.75501 | -102.79684 | 12975 ft | 302 kts | 137° |
| 2026-04-20 07:36 | 20.74033 | -102.78152 | 12979 ft | 294 kts | 137° |
| 2026-04-20 07:36 | 20.72568 | -102.76627 | 12975 ft | 287 kts | 137° |
| 2026-04-20 07:36 | 20.71164 | -102.75180 | 12975 ft | 280 kts | 140° |
| 2026-04-20 07:36 | 20.69640 | -102.73888 | 12985 ft | 275 kts | 144° |
| 2026-04-20 07:37 | 20.68101 | -102.72691 | 13000 ft | 280 kts | 145° |
| 2026-04-20 07:37 | 20.66511 | -102.71461 | 12994 ft | 284 kts | 145° |
| 2026-04-20 07:37 | 20.64923 | -102.70222 | 12987 ft | 281 kts | 145° |
| 2026-04-20 07:37 | 20.63360 | -102.68993 | 12978 ft | 278 kts | 144° |
| 2026-04-20 07:38 | 20.61819 | -102.67773 | 12962 ft | 275 kts | 144° |
| 2026-04-20 07:38 | 20.60291 | -102.66560 | 12972 ft | 272 kts | 144° |
| 2026-04-20 07:38 | 20.58758 | -102.65341 | 12982 ft | 277 kts | 144° |
| 2026-04-20 07:38 | 20.57207 | -102.64108 | 12986 ft | 280 kts | 144° |
| 2026-04-20 07:39 | 20.55641 | -102.62868 | 12977 ft | 279 kts | 147° |
| 2026-04-20 07:39 | 20.53891 | -102.62047 | 12973 ft | 275 kts | 170° |
| 2026-04-20 07:39 | 20.52003 | -102.61764 | 12997 ft | 274 kts | 174° |
| 2026-04-20 07:39 | 20.50105 | -102.61539 | 12994 ft | 274 kts | 174° |
| 2026-04-20 07:40 | 20.48181 | -102.61314 | 12991 ft | 275 kts | 174° |
| 2026-04-20 07:40 | 20.46302 | -102.61089 | 12994 ft | 276 kts | 174° |
| 2026-04-20 07:40 | 20.44391 | -102.60854 | 12986 ft | 277 kts | 174° |
| 2026-04-20 07:40 | 20.42446 | -102.60612 | 12987 ft | 278 kts | 174° |
| 2026-04-20 07:41 | 20.40546 | -102.60372 | 12981 ft | 279 kts | 174° |
| 2026-04-20 07:41 | 20.38615 | -102.60127 | 12966 ft | 280 kts | 174° |
| 2026-04-20 07:41 | 20.36679 | -102.59881 | 12973 ft | 280 kts | 174° |